Time;durP1;ratioP1;P1;durP2;ratioP2;P2;SDS_P1;SDS_P2;PMS_P1;PMS_P2;Temp;Humidity;BMP_temperature;BMP_pressure;BME280_temperature;BME280_humidity;BME280_pressure;Samples;Min_cycle;Max_cycle;Signal;HPM_P1;HPM_P2
2022/09/17 00:01:19;;;;;;;13.75;9.40;;;460.90;2380.80;;;;;;5115417;27;20031;-78
2022/09/17 00:03:49;;;;;;;12.82;8.77;;;460.80;2380.80;;;;;;5133430;27;20079;-79
2022/09/17 00:06:15;;;;;;;11.88;7.63;;;460.80;2380.80;;;;;;5138564;27;20038;-79
2022/09/17 00:08:41;;;;;;;10.65;8.02;;;460.80;2380.80;;;;;;5125701;27;20015;-78
2022/09/17 00:11:13;;;;;;;11.73;8.43;;;436.10;2355.20;;;;;;5136873;27;20043;-76
2022/09/17 00:13:40;;;;;;;12.90;8.10;;;436.10;2355.20;;;;;;5133501;27;20104;-79
2022/09/17 00:16:06;;;;;;;14.45;9.73;;;436.10;2355.20;;;;;;5120664;27;20036;-79
2022/09/17 00:18:35;;;;;;;14.20;9.38;;;436.10;2355.20;;;;;;5115021;27;20019;-79
2022/09/17 00:21:02;;;;;;;15.05;9.52;;;436.10;2355.20;;;;;;5114391;27;20023;-79
2022/09/17 00:23:28;;;;;;;17.50;9.80;;;460.80;2380.80;;;;;;5116957;27;20039;-79
2022/09/17 00:25:54;;;;;;;15.50;12.05;;;435.90;2355.20;;;;;;5133416;27;20099;-78
2022/09/17 00:28:20;;;;;;;15.00;9.43;;;435.90;2355.20;;;;;;5151975;27;20106;-78
2022/09/17 00:30:46;;;;;;;16.58;9.27;;;435.90;2355.20;;;;;;5138711;27;20023;-76
2022/09/17 00:33:14;;;;;;;17.27;8.23;;;435.80;2355.20;;;;;;5133199;27;20090;-78
2022/09/17 00:35:39;;;;;;;11.95;7.63;;;435.60;2355.20;;;;;;5117695;27;20053;-78
2022/09/17 00:38:05;;;;;;;13.55;7.72;;;435.50;2355.20;;;;;;5135650;27;20977;-76
2022/09/17 00:40:31;;;;;;;9.50;6.80;;;435.40;2355.20;;;;;;5144403;27;20030;-79
2022/09/17 00:42:57;;;;;;;8.98;5.50;;;435.30;2355.20;;;;;;5114446;27;20062;-78
2022/09/17 00:45:25;;;;;;;9.48;4.15;;;435.20;2355.20;;;;;;5122572;27;20015;-78
2022/09/17 00:47:57;;;;;;;5.78;3.70;;;410.50;2355.20;;;;;;5135939;27;20015;-76
2022/09/17 00:50:29;;;;;;;4.10;2.78;;;410.40;2355.20;;;;;;5132702;27;20024;-79
2022/09/17 00:53:12;;;;;;;10.57;3.05;;;410.30;2355.20;;;;;;5111762;27;20106;-74
2022/09/17 00:56:00;;;;;;;6.88;3.13;;;410.20;2355.20;;;;;;5130277;27;20019;-77
2022/09/17 00:58:26;;;;;;;6.88;2.30;;;410.00;2355.20;;;;;;5135334;27;20078;-77
2022/09/17 01:01:00;;;;;;;5.85;2.40;;;410.00;2355.20;;;;;;5132921;27;20084;-77
2022/09/17 01:03:26;;;;;;;3.58;1.98;;;409.80;2355.20;;;;;;5136523;27;20098;-77
2022/09/17 01:06:11;;;;;;;8.05;1.98;;;409.60;2355.20;;;;;;5117363;27;20099;-76
2022/09/17 01:09:05;;;;;;;6.88;2.33;;;384.70;2329.60;;;;;;5132709;27;20027;-76
2022/09/17 01:12:09;;;;;;;5.07;2.25;;;384.70;2329.60;;;;;;5113371;27;20126;-78
2022/09/17 01:14:43;;;;;;;7.47;3.28;;;384.40;2329.60;;;;;;5089184;28;20059;-77
2022/09/17 01:17:15;;;;;;;6.28;2.78;;;384.30;2329.60;;;;;;5094874;28;20024;-78
2022/09/17 01:20:05;;;;;;;9.25;3.67;;;384.20;2329.60;;;;;;5093096;28;20024;-77
2022/09/17 01:22:47;;;;;;;4.82;2.60;;;384.00;2329.60;;;;;;5088551;28;20516;-78
2022/09/17 01:25:16;;;;;;;6.60;3.28;;;384.10;2329.60;;;;;;5088680;28;20036;-76
2022/09/17 01:27:56;;;;;;;11.27;4.65;;;384.10;2329.60;;;;;;5097992;28;20047;-77
2022/09/17 01:30:59;;;;;;;9.52;3.90;;;384.10;2329.60;;;;;;5093511;28;20028;-77
2022/09/17 01:33:37;;;;;;;9.73;3.53;;;384.10;2329.60;;;;;;5093430;28;20016;-77
2022/09/17 01:36:38;;;;;;;5.63;3.22;;;384.00;2329.60;;;;;;5091424;28;20059;-77
2022/09/17 01:39:48;;;;;;;5.18;2.33;;;384.00;2329.60;;;;;;5093336;28;20040;-77
2022/09/17 01:42:30;;;;;;;8.95;2.60;;;384.10;2329.60;;;;;;5015003;28;20495;-77
2022/09/17 01:45:08;;;;;;;7.28;2.90;;;384.20;2329.60;;;;;;5034471;28;20029;-77
2022/09/17 01:47:39;;;;;;;6.63;3.00;;;384.20;2329.60;;;;;;5020752;28;20025;-78
2022/09/17 01:50:11;;;;;;;7.20;2.63;;;384.30;2329.60;;;;;;5042219;28;20057;-77
2022/09/17 01:52:40;;;;;;;6.80;2.90;;;384.50;2329.60;;;;;;5054804;28;20024;-77
2022/09/17 01:55:10;;;;;;;4.88;2.45;;;384.60;2329.60;;;;;;5051894;28;20020;-77
2022/09/17 01:57:39;;;;;;;5.80;2.60;;;384.60;2329.60;;;;;;5071406;28;20032;-77
2022/09/17 02:00:10;;;;;;;5.95;2.72;;;384.60;2329.60;;;;;;5073372;28;20080;-77
2022/09/17 02:02:59;;;;;;;4.57;2.72;;;384.60;2329.60;;;;;;5070627;28;20433;-77
2022/09/17 02:05:44;;;;;;;4.35;3.10;;;384.70;2329.60;;;;;;5068425;28;20025;-76
2022/09/17 02:08:36;;;;;;;4.50;2.42;;;384.80;2329.60;;;;;;5066463;28;20029;-76
2022/09/17 02:11:09;;;;;;;7.00;3.10;;;384.80;2329.60;;;;;;5074933;28;20094;-76
2022/09/17 02:13:53;;;;;;;4.78;2.58;;;384.90;2329.60;;;;;;5054374;28;20021;-76
2022/09/17 02:16:28;;;;;;;6.18;3.10;;;384.90;2329.60;;;;;;5100355;27;20492;-76
2022/09/17 02:19:14;;;;;;;5.07;2.85;;;384.90;2329.60;;;;;;5153050;27;20023;-76
2022/09/17 02:21:50;;;;;;;12.50;4.13;;;384.70;2329.60;;;;;;5131582;27;20047;-76
2022/09/17 02:24:19;;;;;;;6.53;4.07;;;384.90;2329.60;;;;;;5134665;27;20476;-76
2022/09/17 02:27:08;;;;;;;9.00;4.43;;;384.90;2329.60;;;;;;5113189;27;20121;-76
2022/09/17 02:29:43;;;;;;;8.50;4.00;;;409.70;2355.20;;;;;;5128990;27;20016;-76
2022/09/17 02:32:10;;;;;;;8.48;4.30;;;409.60;2355.20;;;;;;5130347;27;20473;-76
2022/09/17 02:34:37;;;;;;;7.65;4.55;;;409.90;2355.20;;;;;;5147393;27;20019;-76
2022/09/17 02:37:03;;;;;;;10.00;4.68;;;409.80;2355.20;;;;;;5133491;27;20023;-76
2022/09/17 02:39:29;;;;;;;8.52;4.45;;;410.00;2355.20;;;;;;5134847;27;20043;-76
2022/09/17 02:42:17;;;;;;;14.25;5.45;;;410.00;2355.20;;;;;;5137945;27;20039;-77
2022/09/17 02:44:54;;;;;;;8.65;4.95;;;410.00;2355.20;;;;;;5135289;27;20077;-76
2022/09/17 02:47:25;;;;;;;7.68;3.60;;;410.00;2355.20;;;;;;5135120;27;20019;-77
2022/09/17 02:50:01;;;;;;;8.32;4.28;;;410.00;2355.20;;;;;;5138123;27;20050;-76
2022/09/17 02:52:57;;;;;;;12.70;5.00;;;410.00;2355.20;;;;;;5133081;27;20015;-76
2022/09/17 02:55:32;;;;;;;8.27;4.70;;;410.00;2355.20;;;;;;5119377;27;20042;-76
2022/09/17 02:58:16;;;;;;;7.47;5.07;;;410.20;2355.20;;;;;;5116431;27;20476;-76
2022/09/17 03:00:43;;;;;;;7.60;5.10;;;410.00;2355.20;;;;;;5127880;27;20118;-76
2022/09/17 03:03:28;;;;;;;10.52;5.55;;;409.90;2355.20;;;;;;5134669;27;20018;-76
2022/09/17 03:05:55;;;;;;;10.40;6.25;;;409.60;2355.20;;;;;;5133679;27;20276;-76
2022/09/17 03:08:38;;;;;;;9.65;5.13;;;409.60;2355.20;;;;;;5119614;27;20382;-76
2022/09/17 03:11:05;;;;;;;9.02;5.68;;;384.90;2329.60;;;;;;5135857;27;20610;-76
2022/09/17 03:13:31;;;;;;;10.18;6.25;;;384.90;2329.60;;;;;;5139184;27;20024;-75
2022/09/17 03:15:57;;;;;;;16.00;6.80;;;409.60;2355.20;;;;;;5116109;27;20376;-77
2022/09/17 03:18:23;;;;;;;12.98;8.15;;;409.70;2355.20;;;;;;5134649;27;20023;-76
2022/09/17 03:20:48;;;;;;;20.63;9.82;;;409.80;2355.20;;;;;;5134702;27;20027;-76
2022/09/17 03:23:15;;;;;;;16.42;9.77;;;409.80;2355.20;;;;;;5137194;27;20027;-76
2022/09/17 03:25:42;;;;;;;20.15;8.00;;;409.90;2355.20;;;;;;5150384;27;20511;-76
2022/09/17 03:28:07;;;;;;;11.02;8.07;;;410.00;2355.20;;;;;;5138440;27;20019;-76
2022/09/17 03:30:33;;;;;;;10.88;7.55;;;410.00;2355.20;;;;;;5119944;27;20541;-76
2022/09/17 03:32:59;;;;;;;12.20;8.57;;;410.00;2355.20;;;;;;5149914;27;20031;-76
2022/09/17 03:35:24;;;;;;;12.80;7.43;;;410.00;2355.20;;;;;;5118768;27;20019;-76
2022/09/17 03:37:50;;;;;;;13.23;7.25;;;410.00;2355.20;;;;;;5120574;27;20030;-75
2022/09/17 03:40:16;;;;;;;12.70;7.95;;;410.10;2355.20;;;;;;5137021;27;20023;-76
2022/09/17 03:42:42;;;;;;;11.93;7.68;;;410.10;2355.20;;;;;;5136570;27;20084;-76
2022/09/17 03:45:08;;;;;;;13.75;8.30;;;410.00;2355.20;;;;;;5136764;27;20026;-74
2022/09/17 03:47:34;;;;;;;18.77;7.32;;;410.10;2355.20;;;;;;5133590;27;20028;-75
2022/09/17 03:49:59;;;;;;;12.70;8.73;;;410.00;2355.20;;;;;;5149247;27;20035;-75
2022/09/17 03:52:25;;;;;;;13.38;8.25;;;410.00;2355.20;;;;;;5133890;27;20026;-76
2022/09/17 03:54:51;;;;;;;17.30;8.32;;;410.00;2355.20;;;;;;5136796;27;20103;-75
2022/09/17 03:57:16;;;;;;;12.25;8.25;;;410.00;2355.20;;;;;;5115421;27;20504;-75
2022/09/17 03:59:42;;;;;;;16.33;8.00;;;410.00;2355.20;;;;;;5133425;27;20094;-75
2022/09/17 04:02:08;;;;;;;15.20;8.82;;;409.90;2355.20;;;;;;5114990;27;20058;-75
2022/09/17 04:04:34;;;;;;;12.20;8.50;;;409.90;2355.20;;;;;;5136378;27;20046;-75
2022/09/17 04:06:59;;;;;;;13.55;8.90;;;409.90;2355.20;;;;;;5115259;27;20016;-75
2022/09/17 04:09:25;;;;;;;15.38;8.60;;;409.80;2355.20;;;;;;5132911;27;20067;-75
2022/09/17 04:11:51;;;;;;;14.20;9.40;;;410.00;2355.20;;;;;;5115936;27;20035;-75
2022/09/17 04:14:16;;;;;;;11.85;8.20;;;410.20;2355.20;;;;;;5132656;27;20019;-76
2022/09/17 04:16:42;;;;;;;13.38;9.63;;;410.20;2355.20;;;;;;5154541;27;20042;-76
2022/09/17 04:19:08;;;;;;;15.07;10.45;;;410.20;2355.20;;;;;;5141998;27;20015;-75
2022/09/17 04:21:34;;;;;;;16.80;10.55;;;410.20;2355.20;;;;;;5148972;27;20064;-75
2022/09/17 04:23:59;;;;;;;21.55;12.48;;;410.20;2355.20;;;;;;5117333;27;20020;-75
2022/09/17 04:26:25;;;;;;;21.38;12.20;;;410.10;2355.20;;;;;;5133075;27;20384;-76
2022/09/17 04:28:51;;;;;;;19.45;12.15;;;410.20;2355.20;;;;;;5139056;27;20015;-77
2022/09/17 04:31:16;;;;;;;15.88;11.02;;;410.20;2355.20;;;;;;5135885;27;20031;-77
2022/09/17 04:33:42;;;;;;;15.65;10.05;;;410.20;2355.20;;;;;;5123464;27;20557;-77
2022/09/17 04:36:08;;;;;;;14.13;9.00;;;410.20;2355.20;;;;;;5157361;27;20027;-77
2022/09/17 04:38:34;;;;;;;13.77;8.90;;;410.20;2355.20;;;;;;5117474;27;20027;-77
2022/09/17 04:40:59;;;;;;;13.60;9.88;;;410.20;2355.20;;;;;;5120187;27;20144;-78
2022/09/17 04:43:25;;;;;;;13.80;8.15;;;410.10;2355.20;;;;;;5119248;27;20091;-79
2022/09/17 04:45:51;;;;;;;17.00;9.38;;;410.00;2355.20;;;;;;5133316;27;20090;-75
2022/09/17 04:48:17;;;;;;;12.80;9.70;;;410.00;2355.20;;;;;;5135615;27;20034;-76
2022/09/17 04:50:43;;;;;;;14.77;11.23;;;410.10;2355.20;;;;;;5135849;27;20537;-74
2022/09/17 04:53:09;;;;;;;14.90;10.35;;;410.00;2355.20;;;;;;5119397;27;20031;-76
2022/09/17 04:55:34;;;;;;;14.32;9.40;;;410.00;2355.20;;;;;;5135598;27;20023;-76
2022/09/17 04:58:00;;;;;;;17.45;9.50;;;410.00;2355.20;;;;;;5132684;27;20068;-77
2022/09/17 05:00:26;;;;;;;13.25;9.85;;;410.20;2355.20;;;;;;5137861;27;20023;-76
2022/09/17 05:02:53;;;;;;;14.95;9.30;;;410.20;2355.20;;;;;;5113607;27;20389;-76
2022/09/17 05:05:20;;;;;;;11.73;8.95;;;410.20;2355.20;;;;;;5138735;27;20026;-76
2022/09/17 05:07:46;;;;;;;19.33;10.23;;;410.20;2355.20;;;;;;5114534;27;20023;-77
2022/09/17 05:10:15;;;;;;;15.30;10.00;;;410.20;2355.20;;;;;;5140763;27;20446;-75
2022/09/17 05:12:46;;;;;;;14.30;9.20;;;410.30;2355.20;;;;;;5122994;27;20039;-76
2022/09/17 05:15:11;;;;;;;12.80;9.48;;;410.30;2355.20;;;;;;5135219;27;20016;-75
2022/09/17 05:17:37;;;;;;;13.15;8.90;;;410.30;2355.20;;;;;;5143513;27;20393;-77
2022/09/17 05:20:03;;;;;;;17.27;10.07;;;410.30;2355.20;;;;;;5132826;27;20102;-77
2022/09/17 05:22:28;;;;;;;14.63;9.85;;;410.30;2355.20;;;;;;5132892;27;20484;-76
2022/09/17 05:24:54;;;;;;;12.15;8.02;;;410.40;2355.20;;;;;;5132816;27;20028;-77
2022/09/17 05:27:20;;;;;;;13.95;9.55;;;410.40;2355.20;;;;;;5138098;27;20106;-78
2022/09/17 05:29:46;;;;;;;16.15;9.35;;;410.30;2355.20;;;;;;5122229;27;20019;-76
2022/09/17 05:32:12;;;;;;;13.82;8.77;;;410.30;2355.20;;;;;;5117156;28;20023;-77
2022/09/17 05:34:37;;;;;;;14.05;7.32;;;410.30;2355.20;;;;;;5115756;27;20030;-77
2022/09/17 05:37:03;;;;;;;13.05;8.23;;;410.30;2355.20;;;;;;5133168;27;20023;-77
2022/09/17 05:39:29;;;;;;;11.02;7.72;;;410.00;2355.20;;;;;;5135002;27;20019;-76
2022/09/17 05:41:54;;;;;;;10.23;7.82;;;410.00;2355.20;;;;;;5119207;28;20047;-77
2022/09/17 05:44:21;;;;;;;9.88;8.20;;;410.20;2355.20;;;;;;5133094;27;20042;-76
2022/09/17 05:46:47;;;;;;;11.88;8.02;;;410.10;2355.20;;;;;;5113824;28;20031;-76
2022/09/17 05:49:14;;;;;;;11.20;7.75;;;410.00;2355.20;;;;;;5114439;28;20488;-77
2022/09/17 05:51:40;;;;;;;9.93;7.40;;;410.00;2355.20;;;;;;5132715;27;20537;-77
2022/09/17 05:54:06;;;;;;;10.55;7.70;;;410.10;2355.20;;;;;;5148806;27;20023;-76
2022/09/17 05:56:32;;;;;;;13.93;8.07;;;410.10;2355.20;;;;;;5132538;28;20109;-75
2022/09/17 05:58:58;;;;;;;8.93;6.47;;;410.10;2355.20;;;;;;5132577;27;20015;-77
2022/09/17 06:01:24;;;;;;;11.88;7.30;;;410.00;2355.20;;;;;;5114334;27;20432;-77
2022/09/17 06:03:50;;;;;;;10.60;6.60;;;410.00;2355.20;;;;;;5120648;27;20034;-76
2022/09/17 06:06:16;;;;;;;11.13;6.50;;;410.00;2355.20;;;;;;5131999;27;20392;-77
2022/09/17 06:08:41;;;;;;;9.65;6.93;;;410.20;2355.20;;;;;;5134282;27;20365;-77
2022/09/17 06:11:08;;;;;;;10.65;6.10;;;410.20;2355.20;;;;;;5135036;27;20524;-76
2022/09/17 06:13:34;;;;;;;10.50;7.30;;;410.20;2355.20;;;;;;5122843;27;20035;-77
2022/09/17 06:16:01;;;;;;;10.10;6.38;;;410.30;2355.20;;;;;;5138836;27;20096;-79
2022/09/17 06:18:29;;;;;;;9.57;6.15;;;410.20;2355.20;;;;;;5131867;27;20025;-77
2022/09/17 06:20:57;;;;;;;8.15;5.43;;;410.00;2355.20;;;;;;5136672;27;20152;-79
2022/09/17 06:23:23;;;;;;;9.88;6.32;;;410.00;2355.20;;;;;;5136552;27;20029;-78
2022/09/17 06:25:57;;;;;;;9.00;5.50;;;410.00;2355.20;;;;;;5150835;27;20035;-76
2022/09/17 06:28:24;;;;;;;7.80;5.18;;;410.00;2355.20;;;;;;5144196;27;20072;-78
2022/09/17 06:30:54;;;;;;;7.20;4.55;;;410.10;2355.20;;;;;;5135872;27;20438;-78
2022/09/17 06:33:23;;;;;;;13.18;5.25;;;410.10;2355.20;;;;;;5135853;27;20030;-78
2022/09/17 06:35:59;;;;;;;7.43;5.63;;;410.20;2355.20;;;;;;5135982;27;20019;-78
2022/09/17 06:38:30;;;;;;;7.47;5.75;;;410.00;2355.20;;;;;;5135962;27;20023;-79
2022/09/17 06:40:56;;;;;;;8.80;6.03;;;410.20;2355.20;;;;;;5135833;27;20033;-78
2022/09/17 06:43:22;;;;;;;8.90;5.25;;;410.20;2355.20;;;;;;5136045;27;20023;-77
2022/09/17 06:46:04;;;;;;;8.35;5.32;;;410.20;2355.20;;;;;;5117338;27;20072;-75
2022/09/17 06:48:33;;;;;;;6.93;4.95;;;410.20;2355.20;;;;;;5130936;27;20031;-77
2022/09/17 06:51:05;;;;;;;10.23;4.85;;;410.30;2355.20;;;;;;5135373;27;20043;-76
2022/09/17 06:53:30;;;;;;;6.57;4.93;;;410.30;2355.20;;;;;;5135885;27;20072;-77
2022/09/17 06:55:58;;;;;;;5.75;4.00;;;410.30;2355.20;;;;;;5116993;27;20430;-77
2022/09/17 06:58:25;;;;;;;12.30;4.53;;;410.30;2355.20;;;;;;5135901;27;20023;-76
2022/09/17 07:00:51;;;;;;;6.75;4.90;;;410.30;2355.20;;;;;;5137063;27;20465;-75
2022/09/17 07:03:17;;;;;;;7.03;4.65;;;410.40;2355.20;;;;;;5129658;27;20556;-77
2022/09/17 07:05:44;;;;;;;11.75;5.32;;;410.40;2355.20;;;;;;5116964;27;20114;-77
2022/09/17 07:08:10;;;;;;;7.88;5.15;;;410.50;2355.20;;;;;;5135435;27;20007;-76
2022/09/17 07:10:36;;;;;;;8.20;5.15;;;410.30;2355.20;;;;;;5138838;27;20047;-77
2022/09/17 07:13:03;;;;;;;6.40;4.80;;;410.50;2355.20;;;;;;5127356;27;20027;-78
2022/09/17 07:15:29;;;;;;;8.52;5.05;;;435.20;2355.20;;;;;;5136877;27;20027;-78
2022/09/17 07:17:55;;;;;;;6.40;4.40;;;410.50;2355.20;;;;;;5143283;27;20872;-78
2022/09/17 07:20:21;;;;;;;7.22;4.95;;;410.50;2355.20;;;;;;5110773;27;20016;-76
2022/09/17 07:22:56;;;;;;;6.03;4.80;;;435.20;2355.20;;;;;;5134075;27;20148;-76
2022/09/17 07:25:22;;;;;;;7.75;5.05;;;435.20;2355.20;;;;;;5135248;27;20015;-77
2022/09/17 07:27:47;;;;;;;6.65;4.70;;;435.30;2355.20;;;;;;5116534;27;20019;-78
2022/09/17 07:30:14;;;;;;;6.95;4.97;;;435.30;2355.20;;;;;;5135298;27;20020;-78
2022/09/17 07:32:40;;;;;;;10.63;5.60;;;410.50;2355.20;;;;;;5116438;27;20023;-77
2022/09/17 07:35:05;;;;;;;9.25;5.65;;;410.50;2355.20;;;;;;5135180;27;20106;-78
2022/09/17 07:37:32;;;;;;;10.15;7.22;;;435.20;2355.20;;;;;;5134873;27;20029;-78
2022/09/17 07:39:57;;;;;;;17.67;9.40;;;435.20;2355.20;;;;;;5134870;27;20106;-80
2022/09/17 07:42:23;;;;;;;14.73;9.38;;;410.50;2355.20;;;;;;5116581;27;20125;-78
2022/09/17 07:44:49;;;;;;;12.35;8.75;;;435.20;2355.20;;;;;;5116158;27;20026;-79
2022/09/17 07:47:14;;;;;;;11.15;8.40;;;435.20;2355.20;;;;;;5116625;27;20038;-78
2022/09/17 07:49:40;;;;;;;13.77;8.45;;;410.50;2355.20;;;;;;5115622;27;20025;-79
2022/09/17 07:52:06;;;;;;;13.57;7.78;;;435.20;2355.20;;;;;;5154264;27;20464;-78
2022/09/17 07:54:38;;;;;;;14.13;8.27;;;435.30;2355.20;;;;;;5127702;27;20125;-78
2022/09/17 07:57:04;;;;;;;11.35;6.88;;;435.30;2355.20;;;;;;5121815;27;20445;-79
2022/09/17 07:59:30;;;;;;;11.07;6.75;;;435.50;2355.20;;;;;;5117040;27;20365;-78
2022/09/17 08:01:56;;;;;;;11.38;6.65;;;435.30;2355.20;;;;;;5139963;27;20037;-79
2022/09/17 08:04:22;;;;;;;12.23;7.18;;;435.30;2355.20;;;;;;5121673;27;20035;-80
2022/09/17 08:06:48;;;;;;;12.18;7.57;;;435.40;2355.20;;;;;;5152642;27;20023;-79
2022/09/17 08:09:14;;;;;;;13.02;8.02;;;435.40;2355.20;;;;;;5119601;27;20034;-80
2022/09/17 08:11:40;;;;;;;11.18;7.60;;;435.50;2355.20;;;;;;5125223;27;20058;-78
2022/09/17 08:14:13;;;;;;;20.70;13.85;;;435.60;2355.20;;;;;;5139642;27;20043;-77
2022/09/17 08:16:39;;;;;;;11.88;8.70;;;435.60;2355.20;;;;;;5117553;27;20027;-77
2022/09/17 08:19:05;;;;;;;11.38;8.07;;;435.60;2355.20;;;;;;5115137;27;20023;-78
2022/09/17 08:21:31;;;;;;;12.25;7.80;;;435.50;2355.20;;;;;;5133815;27;20058;-78
2022/09/17 08:23:57;;;;;;;12.00;7.20;;;435.40;2355.20;;;;;;5155070;27;20026;-78
2022/09/17 08:26:24;;;;;;;9.88;6.68;;;435.40;2355.20;;;;;;5119658;27;20522;-78
2022/09/17 08:28:53;;;;;;;18.77;12.02;;;435.50;2355.20;;;;;;5129931;27;20030;-77
2022/09/17 08:31:20;;;;;;;9.65;6.97;;;435.60;2355.20;;;;;;5115554;27;20377;-77
2022/09/17 08:33:46;;;;;;;10.38;7.30;;;435.70;2355.20;;;;;;5114830;27;20035;-78
2022/09/17 08:36:14;;;;;;;11.57;7.22;;;435.60;2355.20;;;;;;5115441;27;20020;-78
2022/09/17 08:38:40;;;;;;;11.25;7.22;;;435.70;2355.20;;;;;;5149388;27;20066;-77
2022/09/17 08:41:09;;;;;;;8.35;5.63;;;435.70;2355.20;;;;;;5133444;27;20442;-78
2022/09/17 08:43:55;;;;;;;8.05;4.65;;;435.60;2355.20;;;;;;5115296;27;20124;-78
2022/09/17 08:46:23;;;;;;;9.02;4.57;;;435.80;2355.20;;;;;;5110713;28;20532;-77
2022/09/17 08:49:05;;;;;;;6.43;4.22;;;435.80;2355.20;;;;;;5093912;28;20034;-79
2022/09/17 08:51:53;;;;;;;7.22;4.32;;;435.80;2355.20;;;;;;5100666;28;20164;-77
2022/09/17 08:54:49;;;;;;;11.13;5.85;;;435.80;2355.20;;;;;;5102186;28;20495;-77
2022/09/17 08:57:26;;;;;;;11.05;6.57;;;435.80;2355.20;;;;;;5093524;28;20053;-78
2022/09/17 09:00:15;;;;;;;7.20;5.05;;;435.60;2355.20;;;;;;5110621;28;20020;-77
2022/09/17 09:02:56;;;;;;;11.30;6.13;;;435.60;2355.20;;;;;;5093422;28;20092;-77
2022/09/17 09:05:45;;;;;;;9.85;5.88;;;435.60;2355.20;;;;;;5093373;28;20028;-78
2022/09/17 09:08:32;;;;;;;10.43;6.43;;;435.60;2355.20;;;;;;5110222;28;20020;-77
2022/09/17 09:11:02;;;;;;;8.90;5.63;;;435.60;2355.20;;;;;;5110448;28;20429;-77
2022/09/17 09:13:49;;;;;;;11.18;6.13;;;435.60;2355.20;;;;;;5110080;28;20098;-76
2022/09/17 09:16:32;;;;;;;15.88;5.55;;;435.60;2355.20;;;;;;5089938;28;20048;-77
2022/09/17 09:19:23;;;;;;;7.95;4.82;;;435.60;2355.20;;;;;;5103591;28;20020;-77
2022/09/17 09:22:03;;;;;;;7.78;4.18;;;435.60;2355.20;;;;;;5028527;28;20056;-78
2022/09/17 09:24:50;;;;;;;6.55;3.75;;;435.60;2355.20;;;;;;5013795;28;20034;-80
2022/09/17 09:27:22;;;;;;;;;;;435.60;2355.20;;;;;;5012708;28;20065;-79
2022/09/17 09:30:09;;;;;;;7.90;4.03;;;435.70;2355.20;;;;;;5012531;28;19940;-78
2022/09/17 09:32:52;;;;;;;9.00;5.05;;;435.60;2355.20;;;;;;4995988;28;20030;-79
2022/09/17 09:35:26;;;;;;;5.80;3.95;;;435.60;2355.20;;;;;;5012166;28;20546;-80
2022/09/17 09:38:00;;;;;;;5.50;3.63;;;435.60;2355.20;;;;;;4993438;28;20049;-79
2022/09/17 09:40:43;;;;;;;5.15;3.85;;;435.80;2355.20;;;;;;5025784;28;20038;-79
2022/09/17 09:43:33;;;;;;;6.60;4.18;;;436.00;2355.20;;;;;;5017992;28;20037;-79
2022/09/17 09:46:19;;;;;;;8.15;4.88;;;436.00;2355.20;;;;;;5048560;28;20029;-79
2022/09/17 09:49:03;;;;;;;;;;;435.90;2355.20;;;;;;5051214;28;20026;-79
2022/09/17 09:51:51;;;;;;;44.42;22.52;;;435.90;2355.20;;;;;;5046995;28;19916;-79
2022/09/17 09:54:59;;;;;;;19.33;10.10;;;435.80;2355.20;;;;;;5035141;28;20018;-78
2022/09/17 09:57:45;;;;;;;31.70;16.20;;;435.70;2355.20;;;;;;4986719;28;20038;-79
2022/09/17 10:00:27;;;;;;;14.98;6.63;;;435.80;2355.20;;;;;;5036170;28;20033;-79
2022/09/17 10:03:15;;;;;;;9.73;5.15;;;435.60;2355.20;;;;;;5048092;28;20045;-79
2022/09/17 10:05:58;;;;;;;9.18;5.32;;;435.50;2355.20;;;;;;5043667;28;20032;-77
2022/09/17 10:08:25;;;;;;;8.57;5.00;;;435.50;2355.20;;;;;;5063889;28;20037;-77
2022/09/17 10:10:54;;;;;;;6.75;3.80;;;435.50;2355.20;;;;;;5046849;28;20049;-77
2022/09/17 10:13:20;;;;;;;6.68;3.90;;;435.50;2355.20;;;;;;5045521;28;20091;-76
2022/09/17 10:15:46;;;;;;;8.35;4.53;;;435.40;2355.20;;;;;;5071094;28;20040;-77
2022/09/17 10:18:16;;;;;;;6.13;3.03;;;435.40;2355.20;;;;;;5055980;28;20078;-78
2022/09/17 10:20:51;;;;;;;6.57;3.88;;;435.50;2355.20;;;;;;5044044;28;20040;-79
2022/09/17 10:23:19;;;;;;;5.85;3.30;;;435.40;2355.20;;;;;;5062015;28;20538;-79
2022/09/17 10:25:45;;;;;;;5.82;3.72;;;435.50;2355.20;;;;;;5055979;28;20482;-78
2022/09/17 10:28:33;;;;;;;6.25;4.05;;;435.60;2355.20;;;;;;5056412;28;20036;-78
2022/09/17 10:31:08;;;;;;;7.18;3.53;;;435.60;2355.20;;;;;;5032942;28;20072;-78
2022/09/17 10:33:55;;;;;;;6.95;3.80;;;435.60;2355.20;;;;;;5022471;28;20068;-78
2022/09/17 10:36:40;;;;;;;8.35;4.75;;;435.80;2355.20;;;;;;5072186;28;20043;-78
2022/09/17 10:39:26;;;;;;;7.00;3.83;;;435.80;2355.20;;;;;;5072779;28;20046;-78
2022/09/17 10:42:11;;;;;;;8.13;4.43;;;435.90;2355.20;;;;;;5072924;28;20162;-79
2022/09/17 10:44:48;;;;;;;7.95;4.78;;;435.90;2355.20;;;;;;5054962;28;20430;-78
2022/09/17 10:47:24;;;;;;;6.50;5.07;;;436.00;2355.20;;;;;;5052293;28;20056;-78
2022/09/17 10:50:00;;;;;;;11.40;4.88;;;435.90;2355.20;;;;;;5074660;28;20024;-77
2022/09/17 10:52:33;;;;;;;6.13;3.88;;;436.00;2355.20;;;;;;5058035;28;20028;-76
2022/09/17 10:55:28;;;;;;;7.22;4.18;;;435.90;2355.20;;;;;;5062354;28;20035;-77
2022/09/17 10:58:08;;;;;;;5.72;4.10;;;435.90;2355.20;;;;;;5062621;28;20032;-77
2022/09/17 11:01:04;;;;;;;8.15;4.90;;;436.00;2355.20;;;;;;5072666;28;20063;-77
2022/09/17 11:03:32;;;;;;;6.03;3.95;;;435.90;2355.20;;;;;;5074419;28;20077;-78
2022/09/17 11:06:14;;;;;;;6.32;4.13;;;435.80;2355.20;;;;;;5071704;28;20087;-77
2022/09/17 11:08:45;;;;;;;5.32;4.00;;;435.90;2355.20;;;;;;5121417;27;20034;-77
2022/09/17 11:11:26;;;;;;;6.32;3.22;;;436.10;2355.20;;;;;;5129773;27;20048;-78
2022/09/17 11:14:06;;;;;;;5.85;3.10;;;460.80;2380.80;;;;;;5137903;27;20476;-78
2022/09/17 11:16:34;;;;;;;5.38;3.63;;;436.10;2355.20;;;;;;5134388;27;20465;-77
2022/09/17 11:19:22;;;;;;;4.20;3.40;;;460.80;2380.80;;;;;;5119114;27;20035;-78
2022/09/17 11:21:55;;;;;;;6.03;4.03;;;436.10;2355.20;;;;;;5101505;28;20039;-77
2022/09/17 11:24:48;;;;;;;5.55;3.15;;;436.00;2355.20;;;;;;5098688;27;20369;-77
2022/09/17 11:27:17;;;;;;;7.63;3.20;;;436.10;2355.20;;;;;;5138301;27;20019;-78
2022/09/17 11:29:50;;;;;;;4.20;2.72;;;460.80;2380.80;;;;;;5137152;27;20019;-78
2022/09/17 11:32:50;;;;;;;5.75;2.88;;;460.90;2380.80;;;;;;5121338;27;20027;-78
2022/09/17 11:35:51;;;;;;;5.13;2.75;;;460.90;2380.80;;;;;;5121382;27;20087;-77
2022/09/17 11:38:28;;;;;;;7.28;3.47;;;460.80;2380.80;;;;;;5076263;28;20536;-76
2022/09/17 11:41:18;;;;;;;10.40;3.55;;;460.90;2380.80;;;;;;5076695;28;20032;-75
2022/09/17 11:44:08;;;;;;;5.00;2.83;;;461.00;2380.80;;;;;;5091708;28;20123;-77
2022/09/17 11:46:42;;;;;;;4.40;2.75;;;461.20;2380.80;;;;;;5076890;28;20044;-76
2022/09/17 11:49:22;;;;;;;3.63;2.20;;;461.20;2380.80;;;;;;5071347;28;20514;-77
2022/09/17 11:52:05;;;;;;;10.80;3.13;;;461.10;2380.80;;;;;;5086595;28;20028;-77
2022/09/17 11:54:48;;;;;;;12.50;5.22;;;461.50;2380.80;;;;;;5093532;28;20016;-78
2022/09/17 11:57:31;;;;;;;7.85;3.45;;;461.70;2380.80;;;;;;5092712;28;20017;-77
2022/09/17 12:00:17;;;;;;;5.00;2.83;;;461.50;2380.80;;;;;;5081561;28;20032;-77
2022/09/17 12:03:00;;;;;;;7.53;3.22;;;461.60;2380.80;;;;;;5076472;28;20039;-77
2022/09/17 12:05:41;;;;;;;5.43;2.90;;;461.60;2380.80;;;;;;5096161;28;20067;-77
2022/09/17 12:08:52;;;;;;;5.65;3.03;;;461.40;2380.80;;;;;;5096494;28;20051;-77
2022/09/17 12:11:38;;;;;;;6.60;3.03;;;461.30;2380.80;;;;;;5097386;27;20064;-77
2022/09/17 12:14:19;;;;;;;9.52;3.45;;;461.10;2380.80;;;;;;5113555;27;20015;-77
2022/09/17 12:16:48;;;;;;;9.13;3.33;;;461.10;2380.80;;;;;;5121253;27;20067;-77
2022/09/17 12:19:55;;;;;;;5.35;3.05;;;461.10;2380.80;;;;;;5115570;27;20023;-77
2022/09/17 12:22:32;;;;;;;5.13;2.65;;;460.90;2380.80;;;;;;5124163;27;20053;-77
2022/09/17 12:25:00;;;;;;;4.80;2.65;;;460.80;2380.80;;;;;;5136004;27;20504;-77
2022/09/17 12:27:58;;;;;;;6.53;3.08;;;460.80;2380.80;;;;;;5136097;27;20102;-76
2022/09/17 12:30:33;;;;;;;6.03;3.63;;;460.80;2380.80;;;;;;5130022;27;20019;-77
2022/09/17 12:33:09;;;;;;;7.97;3.72;;;435.90;2355.20;;;;;;5135950;27;20156;-77
2022/09/17 12:35:44;;;;;;;7.38;3.60;;;435.90;2355.20;;;;;;5121250;27;20019;-77
2022/09/17 12:38:25;;;;;;;7.78;5.20;;;435.90;2355.20;;;;;;5134062;27;20026;-76
2022/09/17 12:41:15;;;;;;;6.55;3.97;;;435.90;2355.20;;;;;;5131047;27;20484;-75
2022/09/17 12:43:57;;;;;;;5.57;2.80;;;435.90;2355.20;;;;;;5135474;27;20035;-76